Trondheim, Trondheim Vaernes Airport (ENVA)

NameTrondheim Vaernes Airport
CityTrondheim
CountryNorway
ICAOENVA
IATATRD
Altitude56 feet
CoordinatesGoogle Map
Live Air TrafficLiveATC.net
METARENVA 230720Z 30010KT 6000 RA SCT005 OVC008 14/13 Q1013 TEMPO 4000 RA BR SCT007 BKN014 RMK WIND 670FT 31014KT
2024-07-23 07:20:00 Wind: West-Northwest (300°) 5.14 m/s - Visibility: 4000 m - Weather: Rain / Rain / Mist - Temperature: 14 °C - Dew point: 13 °C - Humidity: 93.8% - Pressure: 1013 hPa

Sorry, no flights used the airport in this database.